Time;durP1;ratioP1;P1;durP2;ratioP2;P2;SDS_P1;SDS_P2;PMS_P1;PMS_P2;Temp;Humidity;BMP_temperature;BMP_pressure;BME280_temperature;BME280_humidity;BME280_pressure;Samples;Min_cycle;Max_cycle;Signal;HPM_P1;HPM_P2
2023/05/01 00:01:16;;;;;;;19.17;9.65;;;;;;;;;;5035224;28;20079;-76
2023/05/01 00:03:41;;;;;;;18.00;8.95;;;;;;;;;;5035221;28;20025;-75
2023/05/01 00:06:06;;;;;;;15.97;9.57;;;;;;;;;;5035479;28;20021;-76
2023/05/01 00:08:32;;;;;;;18.13;8.70;;;;;;;;;;5035236;28;20308;-75
2023/05/01 00:11:04;;;;;;;15.23;8.35;;;;;;;;;;5034774;28;20076;-75
2023/05/01 00:13:30;;;;;;;15.65;9.07;;;;;;;;;;5034965;28;20064;-75
2023/05/01 00:15:56;;;;;;;15.45;8.50;;;;;;;;;;5034759;28;20017;-75
2023/05/01 00:18:21;;;;;;;14.63;8.60;;;;;;;;;;5033516;28;20022;-76
2023/05/01 00:20:46;;;;;;;17.00;8.40;;;;;;;;;;5034620;28;20424;-75
2023/05/01 00:23:12;;;;;;;14.20;7.90;;;;;;;;;;5034513;28;20630;-75
2023/05/01 00:25:38;;;;;;;14.63;7.78;;;;;;;;;;5035015;28;20515;-76
2023/05/01 00:28:04;;;;;;;15.18;8.20;;;;;;;;;;5034777;28;20025;-76
2023/05/01 00:30:31;;;;;;;16.05;7.80;;;;;;;;;;5034547;28;20029;-75
2023/05/01 00:32:57;;;;;;;14.52;8.18;;;;;;;;;;5034680;28;20025;-75
2023/05/01 00:35:22;;;;;;;13.50;7.97;;;;;;;;;;5035502;28;20030;-74
2023/05/01 00:37:47;;;;;;;15.20;7.57;;;;;;;;;;5034517;28;20029;-73
2023/05/01 00:40:12;;;;;;;17.55;8.30;;;;;;;;;;5034966;28;20262;-75
2023/05/01 00:42:38;;;;;;;16.60;8.97;;;;;;;;;;5033829;28;20124;-74
2023/05/01 00:45:06;;;;;;;18.17;9.85;;;;;;;;;;5035061;28;20302;-74
2023/05/01 00:47:32;;;;;;;20.08;10.85;;;;;;;;;;5035048;28;20476;-74
2023/05/01 00:49:59;;;;;;;19.85;11.27;;;;;;;;;;5035171;28;20554;-75
2023/05/01 00:52:24;;;;;;;21.52;11.27;;;;;;;;;;5035078;28;20022;-75
2023/05/01 00:54:51;;;;;;;21.83;11.32;;;;;;;;;;5035149;28;20029;-74
2023/05/01 00:57:18;;;;;;;20.15;11.30;;;;;;;;;;5032601;28;20061;-75
2023/05/01 00:59:44;;;;;;;18.15;11.10;;;;;;;;;;5035364;28;20503;-74
2023/05/01 01:02:11;;;;;;;18.95;11.13;;;;;;;;;;5035301;28;20033;-74
2023/05/01 01:04:36;;;;;;;21.63;10.52;;;;;;;;;;5034920;28;20030;-74
2023/05/01 01:07:23;;;;;;;19.70;10.40;;;;;;;;;;5034712;28;20026;-74
2023/05/01 01:10:19;;;;;;;19.13;10.00;;;;;;;;;;5035671;28;20025;-73
2023/05/01 01:13:03;;;;;;;18.38;9.75;;;;;;;;;;5035276;28;20407;-74
2023/05/01 01:15:34;;;;;;;18.25;9.50;;;;;;;;;;5035056;28;20047;-73
2023/05/01 01:18:11;;;;;;;23.73;10.52;;;;;;;;;;5035297;28;20041;-74
2023/05/01 01:20:52;;;;;;;18.92;10.27;;;;;;;;;;5035001;28;20030;-74
2023/05/01 01:23:46;;;;;;;18.95;10.70;;;;;;;;;;5034964;28;20385;-74
2023/05/01 01:26:23;;;;;;;17.38;10.55;;;;;;;;;;5033232;28;20397;-74
2023/05/01 01:29:01;;;;;;;24.67;11.95;;;;;;;;;;5034920;28;20507;-74
2023/05/01 01:31:46;;;;;;;20.73;10.27;;;;;;;;;;5035101;28;20029;-74
2023/05/01 01:34:33;;;;;;;19.33;10.05;;;;;;;;;;5033509;28;20489;-74
2023/05/01 01:37:15;;;;;;;15.13;8.77;;;;;;;;;;5033196;28;20033;-74
2023/05/01 01:40:02;;;;;;;15.52;7.85;;;;;;;;;;5034814;28;20473;-74
2023/05/01 01:42:39;;;;;;;15.25;8.02;;;;;;;;;;5033294;28;20025;-73
2023/05/01 01:45:11;;;;;;;17.38;8.18;;;;;;;;;;5034982;28;20362;-74
2023/05/01 01:47:40;;;;;;;16.38;8.43;;;;;;;;;;5034733;28;20396;-75
2023/05/01 01:50:07;;;;;;;14.23;8.40;;;;;;;;;;5035486;28;20393;-73
2023/05/01 01:52:33;;;;;;;15.32;8.43;;;;;;;;;;5035052;28;20112;-73
2023/05/01 01:55:09;;;;;;;14.23;7.93;;;;;;;;;;5034464;28;20414;-75
2023/05/01 01:57:38;;;;;;;13.73;7.80;;;;;;;;;;5033949;28;20036;-74
2023/05/01 02:00:07;;;;;;;17.20;9.88;;;;;;;;;;5034481;28;20024;-73
2023/05/01 02:02:36;;;;;;;21.75;10.20;;;;;;;;;;5034465;28;20025;-73
2023/05/01 02:05:03;;;;;;;19.00;10.20;;;;;;;;;;5034721;28;20392;-74
2023/05/01 02:07:29;;;;;;;23.65;11.15;;;;;;;;;;5034453;28;20060;-72
2023/05/01 02:09:56;;;;;;;20.08;11.23;;;;;;;;;;5037965;28;20106;-73
2023/05/01 02:12:23;;;;;;;19.05;9.65;;;;;;;;;;5037516;28;20025;-73
2023/05/01 02:14:50;;;;;;;16.48;9.27;;;;;;;;;;5038572;28;20052;-74
2023/05/01 02:17:18;;;;;;;15.43;9.25;;;;;;;;;;5037853;28;20021;-74
2023/05/01 02:19:45;;;;;;;18.75;8.98;;;;;;;;;;5037841;28;20032;-74
2023/05/01 02:22:11;;;;;;;15.45;8.70;;;;;;;;;;5036571;28;20049;-74
2023/05/01 02:24:39;;;;;;;15.48;8.25;;;;;;;;;;5037742;28;20125;-74
2023/05/01 02:27:10;;;;;;;16.65;8.95;;;;;;;;;;5038037;28;20493;-74
2023/05/01 02:29:35;;;;;;;16.63;9.18;;;;;;;;;;5037217;28;20030;-74
2023/05/01 02:32:00;;;;;;;17.13;8.70;;;;;;;;;;5037418;28;20032;-74
2023/05/01 02:34:26;;;;;;;14.15;8.23;;;;;;;;;;5038461;28;20022;-74
2023/05/01 02:36:51;;;;;;;14.02;8.13;;;;;;;;;;5038334;28;20503;-74
2023/05/01 02:39:17;;;;;;;14.13;8.27;;;;;;;;;;5037426;28;20029;-74
2023/05/01 02:41:44;;;;;;;15.68;8.63;;;;;;;;;;5036887;28;20270;-74
2023/05/01 02:44:11;;;;;;;17.30;9.23;;;;;;;;;;5038247;28;20096;-74
2023/05/01 02:46:37;;;;;;;17.83;9.32;;;;;;;;;;5037663;28;20029;-74
2023/05/01 02:49:03;;;;;;;20.15;9.80;;;;;;;;;;5037795;28;20026;-74
2023/05/01 02:51:30;;;;;;;21.88;10.95;;;;;;;;;;5037763;28;20017;-74
2023/05/01 02:53:56;;;;;;;20.85;11.88;;;;;;;;;;5036577;28;20030;-74
2023/05/01 02:56:21;;;;;;;28.00;12.88;;;;;;;;;;5037332;28;20028;-74
2023/05/01 02:58:48;;;;;;;24.17;13.82;;;;;;;;;;5037612;28;20034;-74
2023/05/01 03:01:14;;;;;;;28.30;13.13;;;;;;;;;;5037238;28;20025;-74
2023/05/01 03:03:39;;;;;;;23.83;13.27;;;;;;;;;;5037269;28;20036;-74
2023/05/01 03:06:04;;;;;;;26.65;12.40;;;;;;;;;;5037135;28;20028;-74
2023/05/01 03:08:29;;;;;;;20.90;12.25;;;;;;;;;;5037682;28;20025;-74
2023/05/01 03:10:54;;;;;;;25.50;12.70;;;;;;;;;;5037112;28;20022;-74
2023/05/01 03:13:21;;;;;;;24.10;12.17;;;;;;;;;;5037508;28;20266;-74
2023/05/01 03:15:46;;;;;;;27.33;12.35;;;;;;;;;;5037584;28;20250;-74
2023/05/01 03:18:11;;;;;;;21.17;11.87;;;;;;;;;;5036374;28;20083;-74
2023/05/01 03:20:36;;;;;;;23.02;12.93;;;;;;;;;;5036347;28;20258;-74
2023/05/01 03:23:02;;;;;;;22.35;12.18;;;;;;;;;;5036757;28;20025;-74
2023/05/01 03:25:27;;;;;;;24.42;12.10;;;;;;;;;;5036893;28;20503;-73
2023/05/01 03:27:52;;;;;;;23.38;12.65;;;;;;;;;;5037631;28;20488;-74
2023/05/01 03:30:18;;;;;;;29.23;13.70;;;;;;;;;;5035918;28;20021;-74
2023/05/01 03:32:43;;;;;;;27.25;13.45;;;;;;;;;;5037522;28;20269;-74
2023/05/01 03:35:09;;;;;;;26.05;13.90;;;;;;;;;;5037331;28;20048;-73
2023/05/01 03:37:35;;;;;;;29.95;13.88;;;;;;;;;;5036898;28;20024;-73
2023/05/01 03:40:00;;;;;;;29.17;13.07;;;;;;;;;;5036591;28;20029;-74
2023/05/01 03:42:25;;;;;;;25.25;13.65;;;;;;;;;;5037099;28;20043;-73
2023/05/01 03:44:51;;;;;;;32.63;14.05;;;;;;;;;;5036773;28;20025;-75
2023/05/01 03:47:16;;;;;;;26.10;13.35;;;;;;;;;;5036629;28;20025;-74
2023/05/01 03:49:42;;;;;;;19.95;12.48;;;;;;;;;;5036545;28;20022;-73
2023/05/01 03:52:08;;;;;;;23.70;12.85;;;;;;;;;;5035986;28;20059;-74
2023/05/01 03:54:33;;;;;;;25.92;12.05;;;;;;;;;;5036670;28;20468;-74
2023/05/01 03:56:59;;;;;;;24.67;11.65;;;;;;;;;;5036372;28;20034;-74
2023/05/01 03:59:24;;;;;;;23.77;12.73;;;;;;;;;;5035232;28;20021;-74
2023/05/01 04:01:49;;;;;;;21.98;12.15;;;;;;;;;;5036632;28;20076;-74
2023/05/01 04:04:15;;;;;;;25.85;12.40;;;;;;;;;;5036035;28;20029;-74
2023/05/01 04:06:40;;;;;;;27.65;13.23;;;;;;;;;;5036013;28;20036;-74
2023/05/01 04:09:07;;;;;;;23.25;12.63;;;;;;;;;;5036437;28;20021;-74
2023/05/01 04:11:32;;;;;;;22.58;11.80;;;;;;;;;;5035795;28;20021;-74
2023/05/01 04:13:57;;;;;;;25.83;12.95;;;;;;;;;;5035764;28;20064;-74
2023/05/01 04:16:23;;;;;;;22.55;12.55;;;;;;;;;;5035550;28;20112;-74
2023/05/01 04:18:48;;;;;;;20.98;12.00;;;;;;;;;;5035918;28;20033;-74
2023/05/01 04:21:16;;;;;;;21.52;11.95;;;;;;;;;;5034558;28;20537;-74
2023/05/01 04:23:41;;;;;;;24.45;12.40;;;;;;;;;;5034902;28;20408;-74
2023/05/01 04:26:07;;;;;;;27.65;12.88;;;;;;;;;;5035771;28;20029;-74
2023/05/01 04:28:32;;;;;;;23.15;12.52;;;;;;;;;;5035606;28;20048;-74
2023/05/01 04:30:57;;;;;;;22.33;12.48;;;;;;;;;;5034228;28;20079;-74
2023/05/01 04:33:22;;;;;;;24.85;12.18;;;;;;;;;;5034880;28;20025;-74
2023/05/01 04:35:48;;;;;;;26.80;12.75;;;;;;;;;;5035552;28;20028;-74
2023/05/01 04:38:13;;;;;;;24.75;12.65;;;;;;;;;;5036205;28;20053;-74
2023/05/01 04:40:38;;;;;;;24.17;12.75;;;;;;;;;;5034339;28;20028;-74
2023/05/01 04:43:03;;;;;;;23.73;12.77;;;;;;;;;;5035022;28;20500;-74
2023/05/01 04:45:28;;;;;;;24.13;12.43;;;;;;;;;;5035306;28;20777;-74
2023/05/01 04:47:54;;;;;;;26.27;12.87;;;;;;;;;;5035451;28;20760;-74
2023/05/01 04:50:19;;;;;;;25.23;13.30;;;;;;;;;;5033801;28;20832;-74
2023/05/01 04:52:44;;;;;;;21.33;12.20;;;;;;;;;;5033437;28;20531;-74
2023/05/01 04:55:10;;;;;;;28.05;13.77;;;;;;;;;;5035178;28;20029;-73
2023/05/01 04:57:35;;;;;;;26.65;13.35;;;;;;;;;;5034888;28;20476;-73
2023/05/01 05:00:02;;;;;;;24.10;12.85;;;;;;;;;;5034905;28;20021;-75
2023/05/01 05:02:28;;;;;;;26.90;13.07;;;;;;;;;;5033690;28;20021;-74
2023/05/01 05:04:53;;;;;;;27.95;13.20;;;;;;;;;;5034971;28;20033;-75
2023/05/01 05:07:19;;;;;;;23.52;13.13;;;;;;;;;;5034715;28;20084;-73
2023/05/01 05:09:45;;;;;;;26.80;13.20;;;;;;;;;;5035190;28;20400;-74
2023/05/01 05:12:10;;;;;;;27.08;13.38;;;;;;;;;;5034795;28;20025;-74
2023/05/01 05:14:35;;;;;;;21.55;13.27;;;;;;;;;;5034575;28;20120;-74
2023/05/01 05:17:01;;;;;;;26.73;14.00;;;;;;;;;;5035051;28;20037;-73
2023/05/01 05:19:26;;;;;;;33.40;14.32;;;;;;;;;;5035461;28;20262;-75
2023/05/01 05:21:51;;;;;;;26.77;14.10;;;;;;;;;;5035045;28;20023;-74
2023/05/01 05:24:16;;;;;;;28.98;14.35;;;;;;;;;;5034738;28;20262;-74
2023/05/01 05:26:42;;;;;;;30.97;15.13;;;;;;;;;;5035279;28;20041;-73
2023/05/01 05:29:07;;;;;;;26.93;14.53;;;;;;;;;;5033514;28;20334;-74
2023/05/01 05:31:32;;;;;;;27.83;15.13;;;;;;;;;;5034798;28;20286;-74
2023/05/01 05:33:57;;;;;;;27.00;15.00;;;;;;;;;;5033269;28;20029;-74
2023/05/01 05:36:23;;;;;;;26.48;14.88;;;;;;;;;;5034577;28;20028;-74
2023/05/01 05:38:49;;;;;;;28.40;14.85;;;;;;;;;;5034650;28;20025;-74
2023/05/01 05:41:14;;;;;;;26.30;15.05;;;;;;;;;;5033346;28;20017;-74
2023/05/01 05:43:40;;;;;;;26.67;15.50;;;;;;;;;;5036103;28;20029;-73
2023/05/01 05:46:05;;;;;;;24.60;14.18;;;;;;;;;;5040117;28;20025;-73
2023/05/01 05:48:30;;;;;;;25.02;14.05;;;;;;;;;;5041305;28;20025;-73
2023/05/01 05:50:56;;;;;;;33.42;14.98;;;;;;;;;;5039767;28;20124;-74
2023/05/01 05:53:21;;;;;;;27.85;13.85;;;;;;;;;;5039810;28;20404;-75
2023/05/01 05:55:47;;;;;;;26.10;14.27;;;;;;;;;;5040940;28;20025;-73
2023/05/01 05:58:18;;;;;;;28.02;14.35;;;;;;;;;;5040545;28;20033;-73
2023/05/01 06:00:47;;;;;;;29.75;15.55;;;;;;;;;;5040445;28;20029;-74
2023/05/01 06:03:13;;;;;;;25.73;12.68;;;;;;;;;;5039677;28;20022;-73
2023/05/01 06:05:38;;;;;;;25.40;13.55;;;;;;;;;;5038383;28;20048;-73
2023/05/01 06:08:04;;;;;;;25.77;12.32;;;;;;;;;;5040061;28;20021;-74
2023/05/01 06:10:29;;;;;;;20.35;12.10;;;;;;;;;;5038771;28;20484;-73
2023/05/01 06:12:54;;;;;;;22.27;12.80;;;;;;;;;;5039614;28;20021;-71
2023/05/01 06:15:20;;;;;;;20.80;10.88;;;;;;;;;;5039728;28;20542;-73
2023/05/01 06:17:45;;;;;;;20.80;10.68;;;;;;;;;;5039706;28;20029;-74
2023/05/01 06:20:10;;;;;;;18.27;10.60;;;;;;;;;;5039625;28;20064;-74
2023/05/01 06:22:36;;;;;;;19.27;9.90;;;;;;;;;;5040000;28;20032;-73
2023/05/01 06:25:01;;;;;;;17.10;8.83;;;;;;;;;;5039680;28;20048;-75
2023/05/01 06:27:26;;;;;;;17.10;8.87;;;;;;;;;;5040138;28;20266;-75
2023/05/01 06:29:51;;;;;;;15.60;7.82;;;;;;;;;;5039670;28;20278;-73
2023/05/01 06:32:17;;;;;;;16.03;7.93;;;;;;;;;;5040146;28;20055;-74
2023/05/01 06:34:42;;;;;;;15.68;8.18;;;;;;;;;;5040063;28;20290;-76
2023/05/01 06:37:07;;;;;;;12.18;6.97;;;;;;;;;;5039375;28;20068;-74
2023/05/01 06:39:33;;;;;;;12.68;6.85;;;;;;;;;;5039253;28;20021;-75
2023/05/01 06:41:58;;;;;;;12.98;6.90;;;;;;;;;;5037903;28;20026;-74
2023/05/01 06:44:23;;;;;;;13.80;6.85;;;;;;;;;;5039083;28;20028;-74
2023/05/01 06:46:48;;;;;;;16.67;6.77;;;;;;;;;;5038833;28;20037;-74
2023/05/01 06:49:14;;;;;;;14.43;6.60;;;;;;;;;;5038887;28;20264;-74
2023/05/01 06:51:39;;;;;;;12.77;6.28;;;;;;;;;;5039196;28;20270;-74
2023/05/01 06:54:04;;;;;;;15.00;6.30;;;;;;;;;;5037611;28;20112;-75
2023/05/01 06:56:31;;;;;;;10.00;5.63;;;;;;;;;;5034442;28;20290;-74
2023/05/01 06:58:56;;;;;;;14.70;5.88;;;;;;;;;;5034341;28;20263;-74
2023/05/01 07:01:21;;;;;;;11.48;5.45;;;;;;;;;;5035600;28;20075;-74
2023/05/01 07:03:49;;;;;;;9.07;5.47;;;;;;;;;;5036027;28;20392;-75
2023/05/01 07:06:14;;;;;;;11.43;6.18;;;;;;;;;;5035435;28;20022;-74
2023/05/01 07:08:40;;;;;;;8.93;5.20;;;;;;;;;;5035404;28;20029;-75
2023/05/01 07:11:06;;;;;;;12.73;5.30;;;;;;;;;;5035303;28;20259;-73
2023/05/01 07:13:31;;;;;;;17.40;6.07;;;;;;;;;;5036833;28;20032;-73
2023/05/01 07:15:57;;;;;;;12.90;6.28;;;;;;;;;;5036874;28;20033;-73
2023/05/01 07:18:22;;;;;;;14.57;6.13;;;;;;;;;;5036686;28;20025;-76
2023/05/01 07:20:48;;;;;;;10.47;5.90;;;;;;;;;;5039845;28;20033;-75
2023/05/01 07:23:16;;;;;;;13.32;5.60;;;;;;;;;;5038120;28;20254;-82
2023/05/01 07:25:44;;;;;;;7.50;4.80;;;;;;;;;;5035575;28;20037;-73
2023/05/01 07:28:09;;;;;;;11.15;5.30;;;;;;;;;;5037077;28;20056;-75
2023/05/01 07:30:35;;;;;;;11.23;5.40;;;;;;;;;;5036356;28;20021;-74
2023/05/01 07:33:01;;;;;;;13.45;5.60;;;;;;;;;;5036880;28;20044;-75
2023/05/01 07:35:26;;;;;;;12.50;4.65;;;;;;;;;;5036755;28;20481;-75
2023/05/01 07:37:51;;;;;;;10.00;5.10;;;;;;;;;;5037096;28;20104;-74
2023/05/01 07:40:17;;;;;;;9.75;4.93;;;;;;;;;;5037010;28;20040;-74
2023/05/01 07:42:42;;;;;;;8.82;4.25;;;;;;;;;;5034942;28;20032;-76
2023/05/01 07:45:08;;;;;;;10.40;3.80;;;;;;;;;;5036722;28;20075;-74
2023/05/01 07:47:33;;;;;;;12.63;4.22;;;;;;;;;;5035024;28;20056;-74
2023/05/01 07:49:59;;;;;;;9.20;3.95;;;;;;;;;;5035943;28;20504;-73
2023/05/01 07:52:25;;;;;;;9.77;4.18;;;;;;;;;;5036366;28;20030;-75
2023/05/01 07:54:50;;;;;;;8.80;4.20;;;;;;;;;;5035990;28;20026;-75
2023/05/01 07:57:15;;;;;;;6.82;3.42;;;;;;;;;;5036062;28;20029;-75
2023/05/01 07:59:40;;;;;;;9.40;3.50;;;;;;;;;;5036568;28;20036;-75
2023/05/01 08:02:06;;;;;;;7.13;3.25;;;;;;;;;;5037442;28;20404;-74
2023/05/01 08:04:31;;;;;;;6.15;3.47;;;;;;;;;;5036026;28;20032;-75
2023/05/01 08:06:56;;;;;;;8.55;3.33;;;;;;;;;;5035218;28;20037;-74
2023/05/01 08:09:21;;;;;;;7.32;3.55;;;;;;;;;;5036532;28;20025;-75
2023/05/01 08:11:47;;;;;;;8.07;3.30;;;;;;;;;;5036372;28;20035;-74
2023/05/01 08:14:12;;;;;;;10.40;3.23;;;;;;;;;;5036425;28;20259;-75
2023/05/01 08:16:37;;;;;;;9.43;3.65;;;;;;;;;;5036740;28;20326;-75
2023/05/01 08:19:03;;;;;;;6.47;3.23;;;;;;;;;;5036755;28;20032;-74
2023/05/01 08:21:30;;;;;;;9.43;3.28;;;;;;;;;;5035832;28;20287;-74
2023/05/01 08:23:55;;;;;;;7.05;3.05;;;;;;;;;;5034658;28;20552;-74
2023/05/01 08:26:21;;;;;;;9.90;3.33;;;;;;;;;;5036598;28;20022;-74
2023/05/01 08:28:46;;;;;;;7.63;3.40;;;;;;;;;;5036085;28;20025;-74
2023/05/01 08:31:12;;;;;;;7.63;3.13;;;;;;;;;;5035862;28;20109;-76
2023/05/01 08:33:37;;;;;;;7.03;3.40;;;;;;;;;;5035585;28;20017;-74
2023/05/01 08:36:02;;;;;;;7.25;3.20;;;;;;;;;;5035947;28;20092;-75
2023/05/01 08:38:27;;;;;;;6.28;3.15;;;;;;;;;;5035303;28;20025;-74
2023/05/01 08:40:53;;;;;;;6.13;2.80;;;;;;;;;;5035751;28;20060;-74
2023/05/01 08:43:18;;;;;;;9.85;3.05;;;;;;;;;;5034286;28;20259;-74
2023/05/01 08:45:46;;;;;;;9.73;3.35;;;;;;;;;;5034182;28;20025;-75
2023/05/01 08:48:12;;;;;;;5.40;3.08;;;;;;;;;;5035633;28;20062;-74
2023/05/01 08:50:38;;;;;;;6.13;3.20;;;;;;;;;;5035503;28;20021;-75
2023/05/01 08:53:05;;;;;;;7.47;3.28;;;;;;;;;;5035412;28;20086;-75
2023/05/01 08:55:35;;;;;;;6.43;2.88;;;;;;;;;;5035068;28;20025;-75
2023/05/01 08:58:02;;;;;;;7.40;3.30;;;;;;;;;;5035831;28;20022;-75
2023/05/01 09:00:29;;;;;;;7.90;3.35;;;;;;;;;;5035432;28;20029;-75
2023/05/01 09:02:56;;;;;;;8.50;2.38;;;;;;;;;;5035594;28;20028;-74
2023/05/01 09:05:21;;;;;;;8.85;2.97;;;;;;;;;;5034221;28;20025;-75
2023/05/01 09:07:47;;;;;;;6.63;3.20;;;;;;;;;;5033924;28;20445;-75
2023/05/01 09:10:14;;;;;;;6.43;3.20;;;;;;;;;;5035453;28;20289;-74
2023/05/01 09:12:43;;;;;;;6.95;2.58;;;;;;;;;;5033608;28;20074;-74
2023/05/01 09:15:11;;;;;;;7.15;2.95;;;;;;;;;;5034617;28;20017;-74
2023/05/01 09:17:36;;;;;;;9.23;3.45;;;;;;;;;;5034599;28;20025;-75
2023/05/01 09:20:06;;;;;;;5.25;3.30;;;;;;;;;;5034855;28;20092;-75
2023/05/01 09:22:32;;;;;;;4.72;2.50;;;;;;;;;;5034226;28;20025;-75
2023/05/01 09:24:58;;;;;;;10.57;3.58;;;;;;;;;;5034283;28;20053;-74
2023/05/01 09:27:25;;;;;;;12.07;3.55;;;;;;;;;;5034225;28;20381;-75
2023/05/01 09:29:50;;;;;;;10.23;3.20;;;;;;;;;;5033042;28;20025;-74
2023/05/01 09:32:21;;;;;;;6.40;3.17;;;;;;;;;;5034255;28;20087;-75
2023/05/01 09:34:48;;;;;;;4.75;2.80;;;;;;;;;;5034489;28;20532;-75
2023/05/01 09:37:27;;;;;;;7.20;2.63;;;;;;;;;;5032816;28;20424;-74
2023/05/01 09:40:10;;;;;;;6.30;3.30;;;;;;;;;;5034833;28;20036;-75
2023/05/01 09:42:38;;;;;;;7.65;2.67;;;;;;;;;;5033988;28;20018;-75
2023/05/01 09:45:10;;;;;;;5.47;2.92;;;;;;;;;;5032728;28;20025;-75
2023/05/01 09:47:36;;;;;;;8.35;2.67;;;;;;;;;;5034082;28;20057;-75
2023/05/01 09:50:02;;;;;;;4.45;2.72;;;;;;;;;;5033861;28;20063;-75
2023/05/01 09:52:28;;;;;;;5.93;2.80;;;;;;;;;;5034253;28;20547;-74
2023/05/01 09:55:16;;;;;;;5.90;3.00;;;;;;;;;;5032534;28;20116;-74
2023/05/01 09:57:42;;;;;;;9.18;3.00;;;;;;;;;;5034191;28;20028;-74
2023/05/01 10:00:14;;;;;;;7.07;3.28;;;;;;;;;;5032636;28;20021;-75
2023/05/01 10:02:41;;;;;;;5.63;2.95;;;;;;;;;;5034058;28;20029;-74
2023/05/01 10:05:08;;;;;;;9.35;3.30;;;;;;;;;;5033863;28;20029;-75
2023/05/01 10:07:33;;;;;;;5.63;2.78;;;;;;;;;;5033675;28;20021;-75
2023/05/01 10:10:17;;;;;;;6.57;2.78;;;;;;;;;;5034252;28;20032;-76
2023/05/01 10:12:42;;;;;;;4.35;2.63;;;;;;;;;;5033605;28;20033;-75
2023/05/01 10:15:08;;;;;;;5.35;2.70;;;;;;;;;;5033665;28;20509;-75
2023/05/01 10:17:35;;;;;;;6.80;2.95;;;;;;;;;;5033817;28;20023;-75
2023/05/01 10:20:00;;;;;;;8.25;3.75;;;;;;;;;;5034073;28;20392;-75
2023/05/01 10:22:25;;;;;;;4.35;2.72;;;;;;;;;;5033986;28;20112;-75
2023/05/01 10:24:54;;;;;;;6.43;2.75;;;;;;;;;;5033403;28;20022;-75
2023/05/01 10:27:22;;;;;;;3.83;2.33;;;;;;;;;;5032358;28;20033;-75
2023/05/01 10:29:52;;;;;;;6.20;2.70;;;;;;;;;;5034438;28;20075;-75
2023/05/01 10:32:17;;;;;;;6.55;2.97;;;;;;;;;;5037313;28;20488;-75
2023/05/01 10:34:49;;;;;;;8.63;2.47;;;;;;;;;;5036069;28;20040;-75
2023/05/01 10:37:29;;;;;;;9.70;3.10;;;;;;;;;;5036036;28;20436;-75
2023/05/01 10:39:55;;;;;;;5.65;2.88;;;;;;;;;;5036037;28;20116;-75
2023/05/01 10:42:20;;;;;;;6.63;3.00;;;;;;;;;;5038175;28;20063;-75
2023/05/01 10:44:46;;;;;;;5.35;2.90;;;;;;;;;;5037908;28;20255;-74
2023/05/01 10:47:25;;;;;;;4.35;2.38;;;;;;;;;;5037586;28;20021;-75
2023/05/01 10:50:06;;;;;;;5.28;2.50;;;;;;;;;;5037688;28;20033;-75
2023/05/01 10:53:09;;;;;;;8.13;2.35;;;;;;;;;;5038068;28;20022;-75
2023/05/01 10:55:36;;;;;;;5.18;2.65;;;;;;;;;;5037812;28;20095;-74
2023/05/01 10:58:01;;;;;;;4.93;2.67;;;;;;;;;;5037034;28;20026;-74
2023/05/01 11:00:26;;;;;;;5.88;2.58;;;;;;;;;;5038278;28;20036;-75
2023/05/01 11:03:20;;;;;;;7.28;2.60;;;;;;;;;;5036354;28;20025;-74
2023/05/01 11:06:03;;;;;;;5.60;2.70;;;;;;;;;;5037753;28;20033;-75
2023/05/01 11:08:33;;;;;;;4.97;2.83;;;;;;;;;;5037700;28;20033;-74
2023/05/01 11:11:20;;;;;;;5.20;2.33;;;;;;;;;;5037550;28;20028;-75
2023/05/01 11:14:04;;;;;;;5.38;2.42;;;;;;;;;;5036312;28;20021;-75
2023/05/01 11:16:32;;;;;;;;;;;;;;;;;;5038070;28;20030;-75
2023/05/01 11:18:58;;;;;;;5.18;2.40;;;;;;;;;;5037816;28;20288;-75
2023/05/01 11:21:32;;;;;;;5.13;2.60;;;;;;;;;;5037576;28;20032;-74
2023/05/01 11:24:02;;;;;;;7.32;3.15;;;;;;;;;;5036435;28;20056;-73
2023/05/01 11:26:29;;;;;;;4.90;2.50;;;;;;;;;;5035328;28;20021;-75
2023/05/01 11:28:57;;;;;;;6.25;2.70;;;;;;;;;;5035971;28;20026;-74
2023/05/01 11:31:23;;;;;;;7.10;2.60;;;;;;;;;;5037171;28;20044;-75
2023/05/01 11:33:48;;;;;;;4.30;2.20;;;;;;;;;;5037363;28;20484;-74
2023/05/01 11:36:13;;;;;;;5.65;2.50;;;;;;;;;;5037026;28;20033;-75
2023/05/01 11:38:52;;;;;;;5.93;2.53;;;;;;;;;;5037938;28;20407;-75
2023/05/01 11:41:22;;;;;;;8.98;2.80;;;;;;;;;;5036529;28;20250;-75
2023/05/01 11:43:55;;;;;;;5.53;2.30;;;;;;;;;;5037019;28;20025;-74
2023/05/01 11:46:28;;;;;;;4.55;2.78;;;;;;;;;;5036115;28;20056;-74
2023/05/01 11:48:57;;;;;;;6.90;2.58;;;;;;;;;;5035530;28;20485;-75
2023/05/01 11:51:24;;;;;;;7.55;2.53;;;;;;;;;;5035426;28;20048;-74
2023/05/01 11:54:04;;;;;;;5.00;2.50;;;;;;;;;;5035408;28;20488;-74
2023/05/01 11:56:31;;;;;;;6.10;2.72;;;;;;;;;;5036372;28;20029;-74
2023/05/01 11:59:07;;;;;;;6.35;2.58;;;;;;;;;;5036437;28;20021;-74
2023/05/01 12:01:34;;;;;;;5.63;2.70;;;;;;;;;;5036515;28;20021;-74
2023/05/01 12:04:00;;;;;;;7.70;2.65;;;;;;;;;;5036084;28;20040;-75
2023/05/01 12:06:42;;;;;;;11.68;2.72;;;;;;;;;;5035758;28;20029;-74
2023/05/01 12:09:15;;;;;;;6.75;2.40;;;;;;;;;;5036231;28;20114;-75
2023/05/01 12:11:41;;;;;;;8.02;2.67;;;;;;;;;;5036075;28;20096;-75
2023/05/01 12:14:06;;;;;;;6.85;2.60;;;;;;;;;;5035734;28;20485;-74
2023/05/01 12:16:32;;;;;;;5.05;2.35;;;;;;;;;;5036089;28;20077;-73
2023/05/01 12:18:57;;;;;;;9.25;2.65;;;;;;;;;;5036070;28;20081;-74
2023/05/01 12:21:24;;;;;;;4.63;2.20;;;;;;;;;;5035936;28;20150;-74
2023/05/01 12:23:49;;;;;;;4.32;2.00;;;;;;;;;;5035756;28;20563;-75
2023/05/01 12:26:20;;;;;;;4.50;1.98;;;;;;;;;;5035433;28;20061;-74
2023/05/01 12:29:14;;;;;;;4.70;2.22;;;;;;;;;;5035982;28;20025;-74
2023/05/01 12:31:47;;;;;;;5.25;1.98;;;;;;;;;;5035231;28;20551;-74
2023/05/01 12:34:13;;;;;;;7.32;2.13;;;;;;;;;;5035296;28;20040;-74
2023/05/01 12:36:38;;;;;;;5.85;2.10;;;;;;;;;;5035803;28;20018;-73
2023/05/01 12:39:06;;;;;;;4.72;1.88;;;;;;;;;;5035791;28;20029;-73
2023/05/01 12:41:45;;;;;;;4.32;2.08;;;;;;;;;;5035730;28;20029;-73
2023/05/01 12:44:16;;;;;;;3.53;1.90;;;;;;;;;;5035709;28;20033;-74
2023/05/01 12:46:43;;;;;;;4.03;1.60;;;;;;;;;;5035608;28;20040;-74
2023/05/01 12:49:15;;;;;;;4.50;1.70;;;;;;;;;;5035859;28;20112;-74
2023/05/01 12:51:45;;;;;;;4.10;1.80;;;;;;;;;;5035897;28;20112;-75
2023/05/01 12:54:11;;;;;;;6.13;1.98;;;;;;;;;;5035918;28;20029;-74
2023/05/01 12:56:37;;;;;;;3.22;1.83;;;;;;;;;;5035484;28;20018;-75
2023/05/01 12:59:02;;;;;;;3.92;1.85;;;;;;;;;;5037461;28;20032;-75
2023/05/01 13:01:28;;;;;;;7.00;1.70;;;;;;;;;;5037752;28;20032;-74
2023/05/01 13:03:55;;;;;;;2.65;1.70;;;;;;;;;;5037937;28;20270;-75
2023/05/01 13:06:21;;;;;;;2.67;1.63;;;;;;;;;;5036432;28;20045;-76
2023/05/01 13:08:47;;;;;;;6.13;1.90;;;;;;;;;;5034712;28;20029;-74
2023/05/01 13:11:16;;;;;;;2.67;1.48;;;;;;;;;;5035768;28;20393;-75
2023/05/01 13:13:46;;;;;;;3.42;1.63;;;;;;;;;;5037496;28;20018;-75
2023/05/01 13:16:13;;;;;;;2.53;1.60;;;;;;;;;;5037130;28;20124;-75
2023/05/01 13:18:50;;;;;;;4.10;1.50;;;;;;;;;;5036674;28;20037;-74
2023/05/01 13:21:17;;;;;;;3.30;1.60;;;;;;;;;;5037993;28;20064;-74
2023/05/01 13:23:57;;;;;;;3.58;1.50;;;;;;;;;;5036667;28;20030;-75
2023/05/01 13:26:34;;;;;;;4.47;1.75;;;;;;;;;;5035480;28;20036;-75
2023/05/01 13:29:00;;;;;;;5.72;1.63;;;;;;;;;;5037566;28;20025;-75
2023/05/01 13:31:26;;;;;;;5.15;1.90;;;;;;;;;;5037090;28;20043;-74
2023/05/01 13:33:53;;;;;;;3.13;1.60;;;;;;;;;;5037197;28;20104;-74
2023/05/01 13:36:19;;;;;;;2.75;1.63;;;;;;;;;;5036044;28;20048;-74
2023/05/01 13:38:47;;;;;;;2.78;1.45;;;;;;;;;;5037574;28;20489;-74
2023/05/01 13:41:18;;;;;;;4.00;1.60;;;;;;;;;;5034793;28;20017;-75
2023/05/01 13:43:50;;;;;;;4.22;1.85;;;;;;;;;;5036491;28;20089;-74
2023/05/01 13:46:18;;;;;;;2.97;1.67;;;;;;;;;;5036599;28;20063;-74
2023/05/01 13:48:44;;;;;;;4.18;1.73;;;;;;;;;;5036281;28;20017;-74
2023/05/01 13:51:11;;;;;;;3.05;1.48;;;;;;;;;;5035026;28;20535;-75
2023/05/01 13:53:39;;;;;;;3.85;1.40;;;;;;;;;;5034190;28;20026;-74
2023/05/01 13:56:07;;;;;;;4.60;1.80;;;;;;;;;;5035679;28;20097;-75
2023/05/01 13:58:33;;;;;;;4.03;1.67;;;;;;;;;;5035186;28;20469;-74
2023/05/01 14:00:58;;;;;;;5.15;1.80;;;;;;;;;;5036174;28;20044;-75
2023/05/01 14:03:24;;;;;;;3.37;1.50;;;;;;;;;;5035323;28;20457;-75
2023/05/01 14:05:49;;;;;;;2.58;1.60;;;;;;;;;;5038056;28;20305;-74
2023/05/01 14:08:14;;;;;;;5.93;1.70;;;;;;;;;;5039657;28;20021;-74
2023/05/01 14:10:40;;;;;;;5.03;1.60;;;;;;;;;;5039403;28;20262;-76
2023/05/01 14:13:05;;;;;;;3.28;1.75;;;;;;;;;;5039434;28;20477;-75
2023/05/01 14:15:32;;;;;;;3.58;1.60;;;;;;;;;;5039640;28;20104;-75
2023/05/01 14:18:04;;;;;;;3.65;1.70;;;;;;;;;;5038064;28;20033;-75
2023/05/01 14:20:29;;;;;;;5.72;1.58;;;;;;;;;;5038506;28;20153;-74
2023/05/01 14:22:55;;;;;;;3.83;1.58;;;;;;;;;;5038361;28;20049;-75
2023/05/01 14:25:29;;;;;;;2.00;1.23;;;;;;;;;;5037980;28;20040;-76
2023/05/01 14:27:56;;;;;;;5.07;1.88;;;;;;;;;;5038139;28;20254;-74
2023/05/01 14:30:36;;;;;;;4.13;1.58;;;;;;;;;;5036620;28;20025;-74
2023/05/01 14:33:02;;;;;;;4.47;1.80;;;;;;;;;;5037718;28;20029;-74
2023/05/01 14:35:28;;;;;;;4.15;1.80;;;;;;;;;;5035926;28;20459;-74
2023/05/01 14:37:54;;;;;;;3.50;1.70;;;;;;;;;;5040123;28;20037;-75